Time;durP1;ratioP1;P1;durP2;ratioP2;P2;SDS_P1;SDS_P2;PMS_P1;PMS_P2;Temp;Humidity;BMP_temperature;BMP_pressure;BME280_temperature;BME280_humidity;BME280_pressure;Samples;Min_cycle;Max_cycle;Signal;HPM_P1;HPM_P2
2021/03/01 00:02:13;;;;;;;4.27;3.97;;;24.50;53.50;;;;;;4956566;29;20452;-65
2021/03/01 00:04:39;;;;;;;4.50;4.20;;;24.40;53.40;;;;;;4956147;29;20951;-63
2021/03/01 00:07:05;;;;;;;4.67;4.30;;;24.40;53.50;;;;;;4956475;29;20473;-67
2021/03/01 00:09:32;;;;;;;4.73;4.33;;;24.40;53.50;;;;;;4956420;29;20463;-62
2021/03/01 00:11:59;;;;;;;5.47;4.97;;;24.40;53.50;;;;;;4956369;29;20449;-62
2021/03/01 00:14:25;;;;;;;5.03;4.63;;;24.40;53.40;;;;;;4956337;29;20449;-62
2021/03/01 00:16:51;;;;;;;5.07;4.67;;;24.40;53.30;;;;;;4956434;29;20461;-60
2021/03/01 00:19:17;;;;;;;5.17;4.77;;;24.40;53.40;;;;;;4956322;29;20470;-62
2021/03/01 00:21:44;;;;;;;5.27;4.87;;;24.40;53.40;;;;;;4956249;29;20801;-61
2021/03/01 00:24:10;;;;;;;5.93;5.43;;;24.40;53.40;;;;;;4956202;29;20445;-65
2021/03/01 00:26:37;;;;;;;5.00;4.60;;;24.40;53.40;;;;;;4956048;29;20548;-61
2021/03/01 00:29:04;;;;;;;4.80;4.50;;;24.40;53.40;;;;;;4956324;29;20449;-61
2021/03/01 00:31:30;;;;;;;5.63;5.23;;;24.40;53.40;;;;;;4956106;29;20456;-60
2021/03/01 00:33:56;;;;;;;5.93;5.43;;;24.40;53.40;;;;;;4956068;29;20452;-62
2021/03/01 00:36:23;;;;;;;5.70;5.13;;;24.40;53.30;;;;;;4956158;28;20456;-62
2021/03/01 00:38:49;;;;;;;6.00;5.50;;;24.40;53.40;;;;;;4956001;29;20510;-61
2021/03/01 00:41:15;;;;;;;6.00;5.50;;;24.40;53.40;;;;;;4955944;29;20452;-61
2021/03/01 00:43:43;;;;;;;5.43;5.03;;;24.40;53.40;;;;;;4955984;29;20451;-61
2021/03/01 00:46:09;;;;;;;6.83;6.23;;;24.40;53.30;;;;;;4955918;29;20533;-61
2021/03/01 00:48:35;;;;;;;5.73;5.17;;;24.40;53.30;;;;;;4955808;29;20445;-61
2021/03/01 00:51:01;;;;;;;5.83;5.33;;;24.40;53.30;;;;;;4955798;29;20448;-61
2021/03/01 00:53:29;;;;;;;6.13;5.60;;;24.40;53.30;;;;;;4955490;29;20460;-61
2021/03/01 00:55:56;;;;;;;5.40;5.00;;;24.50;53.30;;;;;;4956150;29;20492;-60
2021/03/01 00:58:22;;;;;;;5.50;5.00;;;24.40;53.40;;;;;;4955787;29;20450;-61
2021/03/01 01:00:51;;;;;;;6.50;5.90;;;24.40;53.30;;;;;;4955692;29;20474;-60
2021/03/01 01:03:19;;;;;;;6.40;5.80;;;24.40;53.30;;;;;;4955655;29;20849;-61
2021/03/01 01:05:45;;;;;;;6.27;5.73;;;24.40;53.30;;;;;;4955582;29;20492;-60
2021/03/01 01:08:12;;;;;;;6.40;5.90;;;24.40;53.30;;;;;;4955592;29;20448;-62
2021/03/01 01:10:39;;;;;;;6.03;5.53;;;24.40;53.30;;;;;;4955596;29;20448;-64
2021/03/01 01:13:06;;;;;;;6.57;5.97;;;24.40;53.30;;;;;;4955618;29;20449;-61
2021/03/01 01:15:33;;;;;;;7.70;7.00;;;24.40;53.30;;;;;;4955692;29;20450;-61
2021/03/01 01:18:00;;;;;;;5.70;5.30;;;24.50;53.30;;;;;;4955545;29;20854;-60
2021/03/01 01:20:26;;;;;;;6.27;5.67;;;24.40;53.30;;;;;;4955661;29;20551;-61
2021/03/01 01:22:53;;;;;;;5.87;5.40;;;24.30;53.20;;;;;;4955448;29;20450;-61
2021/03/01 01:25:20;;;;;;;5.07;4.67;;;24.30;53.10;;;;;;4955405;29;20491;-61
2021/03/01 01:27:46;;;;;;;5.90;5.50;;;24.40;53.20;;;;;;4955123;29;20452;-61
2021/03/01 01:30:15;;;;;;;6.30;5.80;;;24.30;53.10;;;;;;4955415;29;20449;-60
2021/03/01 01:32:42;;;;;;;6.87;6.30;;;24.30;53.10;;;;;;4955102;29;20942;-61
2021/03/01 01:35:11;;;;;;;5.13;4.73;;;24.30;53.10;;;;;;4955417;29;20472;-65
2021/03/01 01:37:38;;;;;;;6.10;5.57;;;24.30;53.10;;;;;;4955464;29;20843;-61
2021/03/01 01:40:07;;;;;;;5.90;5.40;;;24.30;53.10;;;;;;4955474;29;20456;-61
2021/03/01 01:42:34;;;;;;;5.23;4.83;;;24.30;53.10;;;;;;4955058;29;20962;-63
2021/03/01 01:45:00;;;;;;;6.03;5.60;;;24.30;53.10;;;;;;4955198;29;20487;-64
2021/03/01 01:47:27;;;;;;;6.00;5.50;;;24.30;53.10;;;;;;4955298;28;20457;-62
2021/03/01 01:49:53;;;;;;;6.17;5.67;;;24.30;53.10;;;;;;4959121;29;20456;-61
2021/03/01 01:52:20;;;;;;;6.37;5.80;;;24.30;53.10;;;;;;4958649;29;20452;-62
2021/03/01 01:54:47;;;;;;;5.57;5.13;;;24.30;53.10;;;;;;4958855;29;20483;-64
2021/03/01 01:57:13;;;;;;;5.13;4.73;;;24.30;53.20;;;;;;4958853;29;20452;-61
2021/03/01 01:59:40;;;;;;;5.40;5.00;;;24.30;53.20;;;;;;4958807;29;20453;-61
2021/03/01 02:02:08;;;;;;;4.93;4.57;;;24.30;53.10;;;;;;4958519;29;20498;-61
2021/03/01 02:04:38;;;;;;;5.10;4.70;;;24.30;53.10;;;;;;4958522;29;20452;-60
2021/03/01 02:07:09;;;;;;;5.60;5.10;;;24.30;53.10;;;;;;4959502;29;20449;-61
2021/03/01 02:09:47;;;;;;;5.40;5.00;;;24.30;53.10;;;;;;4958670;29;20448;-60
2021/03/01 02:12:16;;;;;;;5.13;4.73;;;24.30;53.10;;;;;;4958344;29;20444;-60
2021/03/01 02:14:57;;;;;;;4.73;4.40;;;24.30;53.10;;;;;;4958496;29;20450;-62
2021/03/01 02:17:24;;;;;;;5.43;5.00;;;24.30;53.70;;;;;;4958557;29;20492;-61
2021/03/01 02:19:50;;;;;;;4.93;4.57;;;24.30;53.20;;;;;;4958475;29;20445;-61
2021/03/01 02:22:17;;;;;;;4.93;4.53;;;24.30;53.10;;;;;;4958432;29;20463;-60
2021/03/01 02:24:47;;;;;;;4.53;4.13;;;24.30;53.10;;;;;;4959141;29;20760;-60
2021/03/01 02:27:21;;;;;;;4.70;4.30;;;24.30;53.10;;;;;;4958357;29;20440;-61
2021/03/01 02:29:48;;;;;;;4.87;4.43;;;24.30;53.00;;;;;;4958004;29;20441;-60
2021/03/01 02:35:40;;;;;;;4.57;4.27;;;24.30;53.20;;;;;;4957983;29;20832;-60
2021/03/01 02:38:09;;;;;;;5.00;4.60;;;24.30;53.40;;;;;;4958306;29;20444;-60
2021/03/01 02:40:38;;;;;;;4.73;4.33;;;24.30;53.50;;;;;;4958084;29;20452;-60
2021/03/01 02:43:05;;;;;;;3.60;3.33;;;24.30;53.50;;;;;;4957712;29;20454;-61
2021/03/01 02:45:31;;;;;;;4.17;3.87;;;24.30;53.50;;;;;;4958422;29;20495;-60
2021/03/01 02:48:00;;;;;;;4.30;4.00;;;24.30;53.50;;;;;;4957982;29;20448;-61
2021/03/01 02:50:27;;;;;;;4.97;4.57;;;24.30;53.50;;;;;;4957582;29;20935;-61
2021/03/01 02:52:55;;;;;;;3.87;3.57;;;24.30;53.50;;;;;;4957912;29;20499;-62
2021/03/01 02:55:24;;;;;;;4.40;4.00;;;24.30;53.50;;;;;;4957468;29;20818;-61
2021/03/01 02:57:51;;;;;;;4.40;4.10;;;24.30;53.50;;;;;;4957786;29;20446;-61
2021/03/01 03:00:20;;;;;;;4.97;4.60;;;24.40;53.70;;;;;;4956626;28;20447;-61
2021/03/01 03:02:49;;;;;;;4.07;3.77;;;24.30;53.60;;;;;;4957371;29;20487;-61
2021/03/01 03:05:17;;;;;;;4.20;3.90;;;24.30;53.60;;;;;;4957537;29;20539;-62
2021/03/01 03:07:45;;;;;;;4.50;4.20;;;24.30;53.70;;;;;;4957547;29;20452;-60
2021/03/01 03:10:14;;;;;;;3.73;3.50;;;24.30;53.60;;;;;;4957537;29;20442;-61
2021/03/01 03:12:44;;;;;;;3.83;3.57;;;24.40;53.60;;;;;;4957202;29;20456;-61
2021/03/01 03:15:15;;;;;;;3.83;3.53;;;24.30;53.60;;;;;;4957154;29;20459;-61
2021/03/01 03:17:43;;;;;;;3.50;3.23;;;24.30;53.60;;;;;;4957430;29;20430;-61
2021/03/01 03:20:11;;;;;;;4.00;3.67;;;24.30;53.60;;;;;;4957452;29;20453;-60
2021/03/01 03:22:37;;;;;;;3.90;3.70;;;24.30;53.60;;;;;;4957402;29;20447;-60
2021/03/01 03:25:04;;;;;;;3.90;3.60;;;24.30;53.60;;;;;;4957239;29;20944;-61
2021/03/01 03:27:30;;;;;;;4.10;3.87;;;24.40;53.70;;;;;;4957219;29;20448;-61
2021/03/01 03:29:57;;;;;;;3.50;3.30;;;24.30;53.60;;;;;;4957185;29;20801;-60
2021/03/01 03:32:29;;;;;;;4.20;3.90;;;24.40;53.60;;;;;;4956890;29;20451;-60
2021/03/01 03:34:55;;;;;;;3.97;3.67;;;24.40;53.60;;;;;;4957162;29;20615;-61
2021/03/01 03:37:28;;;;;;;3.60;3.40;;;24.30;53.60;;;;;;4957032;29;20444;-60
2021/03/01 03:39:56;;;;;;;4.03;3.73;;;24.40;53.70;;;;;;4957043;29;20476;-60
2021/03/01 03:42:24;;;;;;;3.27;3.00;;;24.40;53.60;;;;;;4956930;29;20452;-61
2021/03/01 03:44:52;;;;;;;4.00;3.70;;;24.30;54.00;;;;;;4956831;29;20456;-60
2021/03/01 03:47:20;;;;;;;3.30;3.10;;;24.40;53.70;;;;;;4956896;29;20457;-60
2021/03/01 03:49:47;;;;;;;3.90;3.57;;;24.40;53.60;;;;;;4957314;29;20453;-62
2021/03/01 03:52:18;;;;;;;3.17;2.97;;;24.40;53.70;;;;;;4957551;29;20781;-60
2021/03/01 03:54:47;;;;;;;3.33;3.03;;;24.30;53.60;;;;;;4956278;29;20580;-60
2021/03/01 03:57:16;;;;;;;4.20;3.90;;;24.30;53.50;;;;;;4956691;29;20448;-60
2021/03/01 03:59:44;;;;;;;3.37;3.17;;;24.30;53.60;;;;;;4957206;29;20452;-60
2021/03/01 04:02:14;;;;;;;3.80;3.50;;;24.40;53.60;;;;;;4956580;29;20446;-60
2021/03/01 04:04:43;;;;;;;3.53;3.23;;;24.40;53.60;;;;;;4957040;29;20448;-61
2021/03/01 04:07:10;;;;;;;4.27;3.97;;;24.40;53.60;;;;;;4956117;29;20500;-60
2021/03/01 04:09:41;;;;;;;3.13;2.93;;;24.40;53.60;;;;;;4956294;29;20460;-64
2021/03/01 04:12:11;;;;;;;3.53;3.33;;;24.40;53.60;;;;;;4956179;28;20447;-62
2021/03/01 04:18:00;;;;;;;3.00;2.80;;;24.40;53.50;;;;;;4956232;29;20415;-61
2021/03/01 04:20:28;;;;;;;3.40;3.20;;;24.40;53.50;;;;;;4955997;29;20455;-61
2021/03/01 04:22:57;;;;;;;3.10;2.90;;;24.30;53.40;;;;;;4956270;29;20452;-60
2021/03/01 04:25:24;;;;;;;3.03;2.83;;;24.30;53.30;;;;;;4956120;29;20487;-61
2021/03/01 04:27:52;;;;;;;3.50;2.80;;;24.40;53.40;;;;;;4956099;29;20816;-62
2021/03/01 04:30:19;;;;;;;3.33;3.13;;;24.40;53.40;;;;;;4956151;29;20812;-61
2021/03/01 04:32:47;;;;;;;2.70;2.50;;;24.40;53.30;;;;;;4956054;29;20497;-61
2021/03/01 04:35:16;;;;;;;3.30;3.10;;;24.40;53.30;;;;;;4955997;29;20513;-61
2021/03/01 04:37:43;;;;;;;2.70;2.50;;;24.40;53.30;;;;;;4955932;29;20947;-61
2021/03/01 04:40:11;;;;;;;2.80;2.60;;;24.40;53.30;;;;;;4955936;29;20508;-61
2021/03/01 04:42:40;;;;;;;2.90;2.70;;;24.40;53.30;;;;;;4955940;29;20448;-62
2021/03/01 04:45:08;;;;;;;3.47;3.23;;;24.40;53.20;;;;;;4955480;29;20456;-61
2021/03/01 04:47:35;;;;;;;2.63;2.43;;;24.40;53.20;;;;;;4955835;29;20828;-60
2021/03/01 04:50:02;;;;;;;2.90;2.70;;;24.40;53.20;;;;;;4955822;29;20457;-61
2021/03/01 04:52:33;;;;;;;3.03;2.83;;;24.40;53.10;;;;;;4955808;29;20781;-60
2021/03/01 04:55:04;;;;;;;2.93;2.73;;;24.40;53.10;;;;;;4955711;29;20480;-60
2021/03/01 04:57:31;;;;;;;2.90;2.70;;;24.40;53.10;;;;;;4955817;29;20845;-60
2021/03/01 05:00:00;;;;;;;2.47;2.33;;;24.40;53.10;;;;;;4955888;29;20820;-60
2021/03/01 05:02:27;;;;;;;2.57;2.37;;;24.40;53.10;;;;;;4955699;29;20444;-61
2021/03/01 05:04:55;;;;;;;2.60;2.50;;;24.40;53.20;;;;;;4955776;29;20492;-63
2021/03/01 05:07:24;;;;;;;2.80;2.60;;;24.40;53.20;;;;;;4955347;29;20953;-61
2021/03/01 05:09:51;;;;;;;2.87;2.67;;;24.40;53.10;;;;;;4955108;29;20983;-61
2021/03/01 05:12:18;;;;;;;2.80;2.60;;;24.40;53.10;;;;;;4955618;29;20800;-60
2021/03/01 05:14:44;;;;;;;2.30;2.20;;;24.40;53.10;;;;;;4955618;29;20477;-60
2021/03/01 05:17:10;;;;;;;2.43;2.23;;;24.40;53.10;;;;;;4955266;29;20946;-60
2021/03/01 05:19:37;;;;;;;2.93;2.73;;;24.40;53.00;;;;;;4955243;29;20790;-63
2021/03/01 05:22:03;;;;;;;2.60;2.40;;;24.40;53.10;;;;;;4955218;28;20940;-61
2021/03/01 05:24:29;;;;;;;2.63;2.50;;;24.40;53.00;;;;;;4958701;29;20507;-61
2021/03/01 05:26:56;;;;;;;2.80;2.60;;;24.40;53.00;;;;;;4959384;29;20496;-61
2021/03/01 05:29:23;;;;;;;2.07;1.97;;;24.40;53.00;;;;;;4959126;29;20452;-61
2021/03/01 05:31:49;;;;;;;2.20;2.00;;;24.40;52.90;;;;;;4959382;29;20449;-61
2021/03/01 05:34:15;;;;;;;2.70;2.50;;;24.40;52.90;;;;;;4959268;29;20460;-61
2021/03/01 05:36:42;;;;;;;2.10;2.00;;;24.40;52.90;;;;;;4959235;29;20448;-62
2021/03/01 05:39:08;;;;;;;2.43;2.23;;;24.40;52.90;;;;;;4959758;29;20459;-60
2021/03/01 05:41:37;;;;;;;2.90;2.70;;;24.40;52.90;;;;;;4958959;29;20449;-61
2021/03/01 05:44:04;;;;;;;2.70;2.50;;;24.40;52.80;;;;;;4959635;29;20446;-63
2021/03/01 05:46:33;;;;;;;2.60;2.40;;;24.40;52.90;;;;;;4959029;29;20500;-65
2021/03/01 05:49:00;;;;;;;2.30;2.20;;;24.40;52.90;;;;;;4959217;29;20449;-61
2021/03/01 05:51:27;;;;;;;2.30;2.20;;;24.30;52.90;;;;;;4958719;29;20452;-61
2021/03/01 05:53:59;;;;;;;2.37;2.27;;;24.40;52.90;;;;;;4959175;29;20455;-62
2021/03/01 05:56:25;;;;;;;2.83;2.63;;;24.40;52.90;;;;;;4958627;29;20511;-60
2021/03/01 05:58:52;;;;;;;2.20;2.10;;;24.40;52.80;;;;;;4958909;29;20784;-62
2021/03/01 06:01:18;;;;;;;2.50;2.33;;;24.40;52.90;;;;;;4958629;29;20455;-61
2021/03/01 06:03:46;;;;;;;2.57;2.47;;;24.40;52.80;;;;;;4958775;29;20861;-62
2021/03/01 06:06:12;;;;;;;2.57;2.37;;;24.40;52.90;;;;;;4958646;29;20494;-63
2021/03/01 06:08:39;;;;;;;2.57;2.37;;;24.40;53.50;;;;;;4958701;29;20512;-65
2021/03/01 06:11:07;;;;;;;2.40;2.20;;;24.40;52.90;;;;;;4959660;29;20456;-61
2021/03/01 06:13:34;;;;;;;2.13;2.00;;;24.40;52.90;;;;;;4958612;29;20448;-61
2021/03/01 06:16:01;;;;;;;2.20;2.10;;;24.40;52.90;;;;;;4958667;29;20522;-61
2021/03/01 06:18:29;;;;;;;2.30;2.20;;;24.40;53.00;;;;;;4958608;29;20448;-60
2021/03/01 06:21:09;;;;;;;2.70;2.50;;;24.40;52.90;;;;;;4958602;29;20448;-61
2021/03/01 06:23:37;;;;;;;2.50;2.30;;;24.40;52.90;;;;;;4958439;29;20442;-61
2021/03/01 06:26:27;;;;;;;2.47;2.27;;;24.40;52.90;;;;;;4957952;29;20491;-61
2021/03/01 06:28:55;;;;;;;2.73;2.53;;;24.40;52.90;;;;;;4958342;29;20478;-61
2021/03/01 06:31:35;;;;;;;2.50;2.30;;;24.40;53.10;;;;;;4958237;29;20459;-62
2021/03/01 06:34:24;;;;;;;2.63;2.43;;;24.40;53.20;;;;;;4958056;28;20467;-61
2021/03/01 06:37:05;;;;;;;5.33;2.50;;;24.40;53.30;;;;;;4958004;29;20456;-62
2021/03/01 06:39:34;;;;;;;2.47;2.37;;;24.40;53.30;;;;;;4958314;29;20438;-61
2021/03/01 06:42:23;;;;;;;2.77;2.57;;;24.40;53.30;;;;;;4957745;29;21012;-61
2021/03/01 06:45:15;;;;;;;3.17;2.60;;;24.40;53.30;;;;;;4958048;29;20441;-65
2021/03/01 06:47:50;;;;;;;2.50;2.30;;;24.40;53.40;;;;;;4958369;29;20444;-62
2021/03/01 06:50:32;;;;;;;3.57;3.17;;;24.40;53.20;;;;;;4957962;29;20448;-60
2021/03/01 06:55:57;;;;;;;6.73;2.47;;;24.40;53.20;;;;;;5111165;27;20511;-60
2021/03/01 06:58:25;;;;;;;4.03;2.30;;;24.40;53.20;;;;;;5111052;28;20436;-60
2021/03/01 07:01:01;;;;;;;2.43;2.23;;;24.40;53.10;;;;;;5111147;28;20924;-61
2021/03/01 07:03:29;;;;;;;5.30;2.73;;;24.40;53.10;;;;;;5110979;28;20438;-62
2021/03/01 07:05:57;;;;;;;4.43;3.10;;;24.30;53.00;;;;;;5110960;28;20456;-60
2021/03/01 07:08:49;;;;;;;2.87;2.67;;;24.40;53.10;;;;;;5110876;28;20458;-60
2021/03/01 07:11:27;;;;;;;2.50;2.30;;;24.50;53.00;;;;;;5096057;28;20798;-60
2021/03/01 07:13:55;;;;;;;4.20;3.17;;;24.40;53.10;;;;;;5110580;28;20477;-60
2021/03/01 07:16:21;;;;;;;6.40;2.53;;;24.40;53.20;;;;;;5110745;28;20442;-60
2021/03/01 07:18:50;;;;;;;9.43;2.20;;;24.30;53.10;;;;;;5110614;28;20442;-61
2021/03/01 07:21:16;;;;;;;2.93;2.30;;;24.40;53.20;;;;;;5110743;28;20796;-60
2021/03/01 07:23:44;;;;;;;5.60;2.97;;;24.40;53.20;;;;;;5110650;28;20446;-60
2021/03/01 07:26:13;;;;;;;3.60;2.90;;;24.40;53.20;;;;;;5109760;28;20440;-60
2021/03/01 07:28:43;;;;;;;2.20;2.10;;;24.40;53.10;;;;;;5110421;28;20925;-62
2021/03/01 07:31:14;;;;;;;2.70;2.50;;;24.40;53.20;;;;;;5110637;28;20874;-61
2021/03/01 07:33:42;;;;;;;3.30;3.00;;;24.40;53.10;;;;;;5110345;28;20450;-60
2021/03/01 07:36:10;;;;;;;3.87;3.57;;;24.40;53.10;;;;;;5110386;28;20442;-62
2021/03/01 07:38:36;;;;;;;4.13;3.20;;;24.30;53.00;;;;;;5110359;28;20454;-62
2021/03/01 07:41:03;;;;;;;4.33;3.60;;;24.40;53.10;;;;;;5110290;28;20437;-60
2021/03/01 07:43:31;;;;;;;6.60;2.93;;;24.40;53.10;;;;;;5110378;28;20444;-61
2021/03/01 07:45:59;;;;;;;3.77;3.47;;;24.40;53.20;;;;;;5109866;28;20440;-62
2021/03/01 07:48:35;;;;;;;3.77;3.40;;;24.40;53.20;;;;;;5109519;28;20523;-60
2021/03/01 07:51:01;;;;;;;6.00;2.97;;;24.40;53.20;;;;;;5110207;28;20765;-61
2021/03/01 07:53:51;;;;;;;4.53;2.70;;;24.40;53.20;;;;;;5109998;28;20424;-60
2021/03/01 07:56:48;;;;;;;4.23;3.20;;;24.40;53.20;;;;;;5110017;28;20437;-63
2021/03/01 07:59:29;;;;;;;7.73;4.10;;;24.40;52.90;;;;;;5109930;28;20437;-61
2021/03/01 08:02:20;;;;;;;3.97;3.50;;;24.40;53.10;;;;;;5109889;28;20463;-65
2021/03/01 08:04:47;;;;;;;5.60;3.00;;;24.40;53.00;;;;;;5109805;28;20519;-61
2021/03/01 08:07:13;;;;;;;6.57;3.23;;;24.40;53.00;;;;;;5096096;28;20444;-61
2021/03/01 08:09:53;;;;;;;7.13;3.43;;;24.40;53.10;;;;;;5096389;28;20447;-62
2021/03/01 08:12:54;;;;;;;34.93;13.03;;;24.40;53.10;;;;;;5095529;28;20561;-64
2021/03/01 08:15:26;;;;;;;19.43;11.47;;;24.30;51.60;;;;;;5095664;28;20813;-59
2021/03/01 08:17:53;;;;;;;18.43;12.10;;;24.20;51.80;;;;;;5095965;28;20448;-58
2021/03/01 08:20:28;;;;;;;28.57;10.47;;;24.20;51.60;;;;;;5095770;28;20507;-59
2021/03/01 08:23:14;;;;;;;18.60;10.30;;;24.20;51.80;;;;;;5095600;28;20442;-59
2021/03/01 08:25:51;;;;;;;23.63;9.20;;;24.20;51.60;;;;;;5094868;28;20438;-60
2021/03/01 08:28:49;;;;;;;15.03;8.00;;;24.10;51.80;;;;;;5094569;28;20450;-59
2021/03/01 08:31:32;;;;;;;10.27;7.13;;;24.10;52.60;;;;;;5091541;28;20547;-58
2021/03/01 08:34:29;;;;;;;18.03;6.73;;;24.10;52.20;;;;;;5095521;28;20521;-58
2021/03/01 08:36:56;;;;;;;11.20;6.40;;;24.10;52.30;;;;;;5095607;28;20525;-61
2021/03/01 08:39:59;;;;;;;9.13;5.50;;;24.10;52.30;;;;;;5094522;28;20877;-62
2021/03/01 08:42:52;;;;;;;7.43;5.30;;;24.20;52.50;;;;;;5095523;28;20440;-60
2021/03/01 08:45:37;;;;;;;6.80;5.37;;;24.20;52.60;;;;;;5095456;28;20933;-64
2021/03/01 08:48:05;;;;;;;8.67;5.27;;;24.20;52.70;;;;;;5095508;28;20434;-61
2021/03/01 08:50:34;;;;;;;4.87;4.33;;;24.20;52.80;;;;;;5095351;28;20797;-60
2021/03/01 08:53:01;;;;;;;10.03;4.60;;;24.20;53.20;;;;;;5095316;28;20445;-60
2021/03/01 08:55:28;;;;;;;7.00;4.57;;;24.20;52.80;;;;;;5094913;28;20515;-65
2021/03/01 08:58:06;;;;;;;7.77;4.80;;;24.20;52.80;;;;;;5095334;28;20438;-64
2021/03/01 09:00:34;;;;;;;5.07;4.57;;;24.20;52.80;;;;;;5095240;28;20438;-65
2021/03/01 09:03:22;;;;;;;5.00;4.60;;;24.20;52.80;;;;;;5095219;28;20499;-65
2021/03/01 09:05:50;;;;;;;6.00;5.40;;;24.30;52.80;;;;;;5095123;28;20461;-64
2021/03/01 09:08:31;;;;;;;4.57;4.17;;;24.30;52.90;;;;;;5094970;28;20457;-65
2021/03/01 09:11:00;;;;;;;4.60;4.17;;;24.30;52.90;;;;;;5095025;28;20442;-60
2021/03/01 09:13:27;;;;;;;4.70;4.20;;;24.30;52.90;;;;;;5094929;28;20448;-64
2021/03/01 09:15:54;;;;;;;4.97;4.20;;;24.30;52.90;;;;;;5094632;28;20492;-61
2021/03/01 09:18:21;;;;;;;5.90;4.50;;;24.30;52.90;;;;;;5093808;28;20457;-67
2021/03/01 09:20:52;;;;;;;4.27;3.93;;;24.30;52.90;;;;;;5094655;28;20515;-60
2021/03/01 09:23:35;;;;;;;5.30;4.27;;;24.30;52.90;;;;;;5094759;28;20438;-65
2021/03/01 09:26:01;;;;;;;4.80;4.20;;;24.40;53.00;;;;;;5092563;28;20460;-67
2021/03/01 09:28:29;;;;;;;5.10;4.60;;;24.40;53.00;;;;;;5094296;28;20447;-63
2021/03/01 09:31:12;;;;;;;4.50;4.10;;;24.40;53.00;;;;;;5094562;28;20971;-66
2021/03/01 09:33:40;;;;;;;4.83;4.33;;;24.40;53.00;;;;;;5094466;28;20808;-67
2021/03/01 09:36:08;;;;;;;6.43;3.90;;;24.40;53.00;;;;;;5094436;28;20941;-60
2021/03/01 09:38:35;;;;;;;4.10;3.53;;;24.40;53.00;;;;;;5094319;28;20465;-64
2021/03/01 09:41:04;;;;;;;4.20;3.87;;;24.40;53.00;;;;;;5094363;28;20457;-62
2021/03/01 09:43:30;;;;;;;4.77;4.17;;;24.40;52.90;;;;;;5094372;28;20446;-64
2021/03/01 09:45:58;;;;;;;5.93;4.10;;;24.40;53.00;;;;;;5094346;28;20452;-62
2021/03/01 09:48:25;;;;;;;10.17;4.07;;;24.40;52.90;;;;;;5094220;28;20438;-60
2021/03/01 09:50:53;;;;;;;3.70;3.40;;;24.40;52.90;;;;;;5094161;28;20967;-63
2021/03/01 09:53:22;;;;;;;7.40;3.20;;;24.40;53.00;;;;;;5094145;28;20452;-61
2021/03/01 09:55:52;;;;;;;4.50;4.03;;;24.40;52.90;;;;;;5093693;28;20525;-62
2021/03/01 09:58:26;;;;;;;3.93;3.53;;;24.40;52.90;;;;;;5094080;28;20442;-65
2021/03/01 10:00:52;;;;;;;3.83;3.53;;;24.40;53.50;;;;;;5094053;28;20784;-60
2021/03/01 10:03:19;;;;;;;4.10;3.70;;;24.40;52.90;;;;;;5093934;28;20968;-67
2021/03/01 10:05:49;;;;;;;3.83;3.13;;;24.40;52.90;;;;;;5093981;28;20440;-66
2021/03/01 10:08:24;;;;;;;6.60;3.50;;;24.40;52.90;;;;;;5093919;28;20460;-65
2021/03/01 10:10:51;;;;;;;4.07;3.70;;;24.40;52.90;;;;;;5093799;28;20967;-61
2021/03/01 10:13:25;;;;;;;4.13;3.83;;;24.40;52.90;;;;;;5093842;28;20439;-67
2021/03/01 10:15:53;;;;;;;3.80;3.50;;;24.40;52.90;;;;;;5093626;28;20586;-64
2021/03/01 10:18:22;;;;;;;4.70;3.67;;;24.40;52.90;;;;;;5093778;28;20454;-62
2021/03/01 10:21:01;;;;;;;4.83;3.70;;;24.40;52.90;;;;;;5093637;28;20453;-65
2021/03/01 10:23:33;;;;;;;4.37;3.97;;;24.40;52.90;;;;;;5093809;28;20443;-64
2021/03/01 10:26:15;;;;;;;4.20;3.80;;;24.40;53.00;;;;;;5093584;28;20474;-62
2021/03/01 10:28:46;;;;;;;3.40;3.10;;;24.50;53.00;;;;;;5093500;28;20445;-61
2021/03/01 10:31:15;;;;;;;3.53;3.23;;;24.50;53.00;;;;;;5093611;28;20435;-63
2021/03/01 10:33:59;;;;;;;3.90;3.60;;;24.50;53.00;;;;;;5093389;28;20434;-62
2021/03/01 10:36:28;;;;;;;6.40;3.27;;;24.50;53.00;;;;;;5093408;28;20453;-64
2021/03/01 10:39:00;;;;;;;3.60;3.40;;;24.40;53.00;;;;;;5093413;28;20536;-61
2021/03/01 10:41:28;;;;;;;4.30;4.00;;;24.40;53.00;;;;;;5093495;28;20838;-61
2021/03/01 10:43:58;;;;;;;3.47;3.23;;;24.40;52.90;;;;;;5093330;28;20446;-59
2021/03/01 10:46:43;;;;;;;3.53;3.30;;;24.50;53.00;;;;;;5093306;28;20449;-64
2021/03/01 10:49:28;;;;;;;3.60;3.40;;;24.50;53.00;;;;;;5093382;28;20442;-62
2021/03/01 10:51:56;;;;;;;3.53;3.10;;;24.50;53.00;;;;;;5093357;28;20450;-62
2021/03/01 10:54:24;;;;;;;2.80;2.60;;;24.50;53.00;;;;;;5092833;28;20490;-61
2021/03/01 10:56:50;;;;;;;3.90;3.10;;;24.50;53.00;;;;;;5093228;28;20440;-66
2021/03/01 10:59:17;;;;;;;3.23;3.03;;;24.50;53.00;;;;;;5093344;28;20827;-62
2021/03/01 11:01:44;;;;;;;3.53;3.23;;;24.60;53.00;;;;;;5093216;28;20435;-66
2021/03/01 11:04:12;;;;;;;4.03;3.63;;;24.50;53.00;;;;;;5093170;28;20999;-58
2021/03/01 11:06:39;;;;;;;3.70;3.20;;;24.50;53.00;;;;;;5093077;28;20436;-60
2021/03/01 11:09:07;;;;;;;3.90;3.60;;;24.50;53.00;;;;;;5093126;28;20462;-58
2021/03/01 11:11:36;;;;;;;3.97;3.20;;;24.50;53.00;;;;;;5093175;28;20450;-58
2021/03/01 11:14:03;;;;;;;3.57;3.27;;;24.50;52.90;;;;;;5093002;28;20456;-62
2021/03/01 11:16:29;;;;;;;3.53;3.23;;;24.50;52.90;;;;;;5093083;28;20481;-62
2021/03/01 11:18:56;;;;;;;3.57;3.27;;;24.50;52.90;;;;;;5093059;28;20439;-67
2021/03/01 11:21:22;;;;;;;3.07;2.87;;;24.50;53.00;;;;;;5092999;28;20435;-65
2021/03/01 11:23:49;;;;;;;3.93;3.17;;;24.50;53.00;;;;;;5092971;28;20952;-62
2021/03/01 11:26:15;;;;;;;3.33;3.13;;;24.50;52.90;;;;;;5093106;28;20442;-61
2021/03/01 11:28:42;;;;;;;3.73;3.43;;;24.50;52.90;;;;;;5092978;28;20435;-65
2021/03/01 11:31:10;;;;;;;3.17;2.97;;;24.50;52.90;;;;;;5092889;28;20537;-62
2021/03/01 11:33:36;;;;;;;3.20;2.73;;;24.50;52.90;;;;;;5092874;28;20448;-59
2021/03/01 11:36:03;;;;;;;3.30;3.10;;;24.50;52.90;;;;;;5092694;28;20487;-59
2021/03/01 11:38:29;;;;;;;3.80;3.13;;;24.50;52.90;;;;;;5092816;28;20969;-65
2021/03/01 11:40:57;;;;;;;3.43;3.23;;;24.50;52.90;;;;;;5093952;28;20478;-59
2021/03/01 11:43:24;;;;;;;3.00;2.80;;;24.50;52.90;;;;;;5096689;28;20503;-59
2021/03/01 11:45:52;;;;;;;3.00;2.80;;;24.50;52.90;;;;;;5096789;28;20794;-63
2021/03/01 11:48:18;;;;;;;3.10;2.90;;;24.50;52.90;;;;;;5096628;28;20444;-63
2021/03/01 11:50:46;;;;;;;3.03;2.83;;;24.50;52.90;;;;;;5096565;28;20441;-61
2021/03/01 11:53:14;;;;;;;3.00;2.80;;;24.50;52.90;;;;;;5096587;28;20442;-62
2021/03/01 11:55:40;;;;;;;3.53;3.23;;;24.50;52.90;;;;;;5096095;28;20889;-60
2021/03/01 11:58:07;;;;;;;4.43;3.30;;;24.50;52.90;;;;;;5096453;28;21026;-60
2021/03/01 12:00:33;;;;;;;2.67;2.47;;;24.50;52.90;;;;;;5096370;28;20439;-63
2021/03/01 12:03:00;;;;;;;2.83;2.63;;;24.50;52.90;;;;;;5096296;28;20441;-66
2021/03/01 12:05:26;;;;;;;3.23;3.00;;;24.50;52.90;;;;;;5096138;28;20497;-63
2021/03/01 12:07:53;;;;;;;3.57;3.27;;;24.50;52.90;;;;;;5096045;28;20463;-65
2021/03/01 12:10:19;;;;;;;3.87;3.47;;;24.50;52.90;;;;;;5096246;28;20446;-64
2021/03/01 12:12:46;;;;;;;3.23;3.03;;;24.50;52.90;;;;;;5096094;28;20435;-65
2021/03/01 12:15:12;;;;;;;3.17;2.90;;;24.50;52.90;;;;;;5095886;28;20490;-66
2021/03/01 12:17:39;;;;;;;4.00;3.70;;;24.60;53.00;;;;;;5095960;28;20435;-66
2021/03/01 12:20:07;;;;;;;2.83;2.63;;;24.60;53.00;;;;;;5095990;28;20437;-66
2021/03/01 12:22:34;;;;;;;3.10;2.90;;;24.60;53.00;;;;;;5095993;28;20447;-65
2021/03/01 12:25:00;;;;;;;3.63;3.33;;;24.60;52.90;;;;;;5095821;28;20450;-58
2021/03/01 12:27:27;;;;;;;2.50;2.30;;;24.60;52.90;;;;;;5095680;28;20861;-60
2021/03/01 12:29:53;;;;;;;3.70;3.40;;;24.60;53.00;;;;;;5095678;28;20844;-59
2021/03/01 12:32:19;;;;;;;3.47;3.20;;;24.60;52.90;;;;;;5095682;28;20431;-60
2021/03/01 12:34:46;;;;;;;5.20;4.00;;;24.60;53.00;;;;;;5095563;28;20489;-60
2021/03/01 12:37:13;;;;;;;3.20;3.00;;;24.70;53.00;;;;;;5095662;28;20460;-57
2021/03/01 12:39:40;;;;;;;3.47;3.27;;;24.60;52.90;;;;;;5095704;28;20440;-59
2021/03/01 12:42:07;;;;;;;3.30;3.10;;;24.60;52.90;;;;;;5095717;28;20438;-61
2021/03/01 12:44:34;;;;;;;3.80;3.13;;;24.60;52.90;;;;;;5095637;28;20439;-60
2021/03/01 12:47:00;;;;;;;3.53;3.23;;;24.60;52.90;;;;;;5095485;28;20470;-63
2021/03/01 12:49:29;;;;;;;4.07;3.67;;;24.60;52.90;;;;;;5095338;28;21010;-61
2021/03/01 12:51:56;;;;;;;3.07;2.87;;;24.60;52.90;;;;;;5095321;28;20441;-65
2021/03/01 12:54:23;;;;;;;3.43;3.23;;;24.60;52.90;;;;;;5094861;28;20483;-61
2021/03/01 12:56:49;;;;;;;4.07;3.77;;;24.60;52.90;;;;;;5095350;28;20771;-64
2021/03/01 12:59:16;;;;;;;4.00;3.70;;;24.60;52.90;;;;;;5095252;28;20447;-61
2021/03/01 13:01:42;;;;;;;3.90;3.60;;;24.60;52.90;;;;;;5095115;28;20443;-59
2021/03/01 13:04:08;;;;;;;3.87;3.60;;;24.60;52.90;;;;;;5095128;28;20444;-59
2021/03/01 13:06:35;;;;;;;3.87;3.60;;;24.70;53.00;;;;;;5095115;28;20447;-62
2021/03/01 13:09:01;;;;;;;4.60;4.30;;;24.60;52.90;;;;;;5094943;28;20465;-59